Terminal Aerodrome Forecast
Issued by NWS

Home | Current Version | Previous Version | Text Only | Print | Product List | Glossary Off
Versions: 1 2 3 4 5 6 7 8 9 10 11 12 13 14 15 16

000
FTUS43 KBIS 250100 AAA
TAFJMS
TAF AMD
KJMS 250156Z 2502/2524 08013KT P6SM BKN026 OVC050
     FM250400 08008KT P6SM OVC020
     FM250800 05008KT P6SM BKN003 OVC008
     FM251600 08008KT P6SM BKN008 OVC012=

USA.gov is the U.S. government's official web portal to all federal, state and local government web resources and services.